Alden, New York
Current Conditions -  °F | °C
As of 3:54 AM on Wednesday 28 Jan 2015 (Local Time) from KBUF Reporting Station
Clear Clear  
Wind Chill: -3°   Ceiling: Unl
Heat Index:   Visibility: 10mi
Dew Point:   Wind: 5mph
Humidity: 83%   Direction: 220°SW
Pressure: 30.14"   Gusts: NA
Location:  42.9°N, 78.49°W
Report Text: KBUF 280854Z 22004KT 10SM CLR M14/M17 A3014 RMK AO2 SLP222 I1000 I3000 T11441167 53012
Loading
Personal Weather Stations






























Interactive Weather Map New forecast layout! Learn more

10-Day Weather Forecast

Advertisements
Track Severe Weather on mobile